Time;durP1;ratioP1;P1;durP2;ratioP2;P2;SDS_P1;SDS_P2;PMS_P1;PMS_P2;Temp;Humidity;BMP_temperature;BMP_pressure;BME280_temperature;BME280_humidity;BME280_pressure;Samples;Min_cycle;Max_cycle;Signal;HPM_P1;HPM_P2
2021/05/29 00:02:01;;;;;;;4.13;1.98;;;;;;;;;;5018997;28;20041;-43
2021/05/29 00:04:27;;;;;;;10.57;1.63;;;;;;;;;;5018863;28;20033;-41
2021/05/29 00:06:52;;;;;;;2.05;1.48;;;;;;;;;;5017804;28;20046;-41
2021/05/29 00:09:17;;;;;;;4.18;2.03;;;;;;;;;;5015620;28;20092;-42
2021/05/29 00:11:43;;;;;;;1.75;0.95;;;;;;;;;;5015592;28;20034;-41
2021/05/29 00:14:08;;;;;;;4.55;1.85;;;;;;;;;;5016775;28;20038;-44
2021/05/29 00:16:33;;;;;;;3.15;1.40;;;;;;;;;;5016253;28;20038;-42
2021/05/29 00:18:59;;;;;;;4.28;2.17;;;;;;;;;;5017434;28;20058;-41
2021/05/29 00:21:24;;;;;;;8.05;2.78;;;;;;;;;;5017471;28;20079;-41
2021/05/29 00:23:49;;;;;;;2.35;1.30;;;;;;;;;;5021411;28;20484;-42
2021/05/29 00:26:15;;;;;;;3.35;2.05;;;;;;;;;;5015479;28;20186;-42
2021/05/29 00:28:40;;;;;;;7.13;2.58;;;;;;;;;;5016940;28;20533;-41
2021/05/29 00:31:06;;;;;;;2.42;1.60;;;;;;;;;;5018826;28;20037;-41
2021/05/29 00:33:31;;;;;;;8.25;1.90;;;;;;;;;;5015346;28;20044;-41
2021/05/29 00:35:56;;;;;;;2.20;1.52;;;;;;;;;;5021354;28;20166;-41
2021/05/29 00:38:22;;;;;;;3.03;1.95;;;;;;;;;;5016834;28;20069;-43
2021/05/29 00:40:47;;;;;;;1.95;1.48;;;;;;;;;;5021476;28;20030;-43
2021/05/29 00:43:12;;;;;;;9.07;2.70;;;;;;;;;;5017644;28;20037;-41
2021/05/29 00:45:38;;;;;;;3.22;1.98;;;;;;;;;;5017940;28;20033;-42
2021/05/29 00:48:03;;;;;;;3.92;2.65;;;;;;;;;;5017391;28;20030;-41
2021/05/29 00:50:31;;;;;;;4.07;2.20;;;;;;;;;;5015968;28;20065;-42
2021/05/29 00:52:57;;;;;;;3.20;1.67;;;;;;;;;;5017273;28;20045;-41
2021/05/29 00:55:22;;;;;;;3.97;1.98;;;;;;;;;;5001794;28;20040;-42
2021/05/29 00:57:48;;;;;;;7.88;3.33;;;;;;;;;;5016229;28;20116;-40
2021/05/29 01:00:16;;;;;;;7.75;2.38;;;;;;;;;;5015743;28;20049;-41
2021/05/29 01:02:41;;;;;;;3.78;1.27;;;;;;;;;;5017068;28;20060;-42
2021/05/29 01:05:08;;;;;;;3.08;1.60;;;;;;;;;;5013931;28;20869;-41
2021/05/29 01:07:34;;;;;;;2.13;1.40;;;;;;;;;;5016999;28;20086;-41
2021/05/29 01:10:00;;;;;;;6.13;2.05;;;;;;;;;;5011468;28;20037;-42
2021/05/29 01:12:25;;;;;;;3.75;1.40;;;;;;;;;;5014754;28;20053;-43
2021/05/29 01:14:59;;;;;;;4.55;1.83;;;;;;;;;;5013272;28;20041;-41
2021/05/29 01:17:28;;;;;;;3.67;1.45;;;;;;;;;;5015562;28;20033;-42
2021/05/29 01:19:55;;;;;;;2.42;1.10;;;;;;;;;;5016164;28;20029;-41
2021/05/29 01:22:39;;;;;;;2.70;1.60;;;;;;;;;;5013455;28;20032;-42
2021/05/29 01:25:20;;;;;;;2.20;1.33;;;;;;;;;;5014124;28;20080;-41
2021/05/29 01:27:45;;;;;;;;;;;;;;;;;;5016103;28;20083;-42
2021/05/29 01:30:11;;;;;;;1.30;0.90;;;;;;;;;;5015839;28;19921;-43
2021/05/29 01:32:36;;;;;;;3.50;1.70;;;;;;;;;;5015498;28;20618;-42
2021/05/29 01:35:04;;;;;;;2.92;1.60;;;;;;;;;;5014476;28;21181;-41
2021/05/29 01:37:29;;;;;;;3.38;1.83;;;;;;;;;;5015750;28;20053;-41
2021/05/29 01:40:02;;;;;;;2.67;1.70;;;;;;;;;;5012910;28;20487;-42
2021/05/29 01:42:41;;;;;;;3.92;2.40;;;;;;;;;;5015765;28;20036;-41
2021/05/29 01:45:09;;;;;;;2.70;1.58;;;;;;;;;;5017360;28;20100;-43
2021/05/29 01:47:43;;;;;;;3.83;1.48;;;;;;;;;;5014220;28;20286;-43
2021/05/29 01:50:10;;;;;;;6.68;1.50;;;;;;;;;;5011527;28;20033;-42
2021/05/29 01:52:48;;;;;;;2.63;1.48;;;;;;;;;;5012384;28;20033;-42
2021/05/29 01:55:24;;;;;;;4.63;1.83;;;;;;;;;;5015298;28;20030;-42
2021/05/29 01:57:50;;;;;;;2.50;1.55;;;;;;;;;;5012296;28;20421;-41
2021/05/29 02:00:16;;;;;;;3.03;2.00;;;;;;;;;;4965099;28;1507676;-42
2021/05/29 02:02:50;;;;;;;6.47;1.92;;;;;;;;;;5018859;28;20057;-41
2021/05/29 02:05:20;;;;;;;2.95;1.27;;;;;;;;;;5017442;28;20041;-43
2021/05/29 02:07:49;;;;;;;2.30;1.30;;;;;;;;;;5017071;28;20037;-41
2021/05/29 02:10:19;;;;;;;3.63;1.58;;;;;;;;;;5017123;28;20606;-42
2021/05/29 02:12:50;;;;;;;2.83;1.65;;;;;;;;;;5013013;28;20030;-41
2021/05/29 02:15:21;;;;;;;4.80;1.63;;;;;;;;;;5016132;28;20496;-42
2021/05/29 02:17:50;;;;;;;17.33;2.70;;;;;;;;;;5016597;28;20041;-42
2021/05/29 02:20:17;;;;;;;19.77;1.88;;;;;;;;;;5011458;28;20076;-42
2021/05/29 02:22:42;;;;;;;2.58;1.85;;;;;;;;;;5014656;28;20041;-41
2021/05/29 02:25:11;;;;;;;2.00;1.45;;;;;;;;;;5015753;28;20048;-42
2021/05/29 02:27:36;;;;;;;2.80;1.88;;;;;;;;;;5014512;28;20036;-41
2021/05/29 02:30:05;;;;;;;7.35;2.80;;;;;;;;;;5017651;28;20029;-41
2021/05/29 02:32:31;;;;;;;6.38;1.50;;;;;;;;;;5015392;28;20045;-43
2021/05/29 02:34:56;;;;;;;7.93;2.40;;;;;;;;;;5015583;28;20091;-42
2021/05/29 02:37:21;;;;;;;5.90;1.95;;;;;;;;;;5016665;28;20033;-48
2021/05/29 02:39:47;;;;;;;1.58;1.27;;;;;;;;;;5013048;28;20275;-41
2021/05/29 02:42:13;;;;;;;2.15;1.40;;;;;;;;;;5012552;28;20026;-42
2021/05/29 02:44:38;;;;;;;3.25;1.40;;;;;;;;;;5014491;28;20038;-41
2021/05/29 02:47:04;;;;;;;4.10;1.58;;;;;;;;;;5015435;28;20101;-41
2021/05/29 02:49:29;;;;;;;1.60;1.30;;;;;;;;;;5014507;28;20569;-43
2021/05/29 02:51:54;;;;;;;2.13;1.50;;;;;;;;;;5013714;28;20372;-42
2021/05/29 02:54:22;;;;;;;4.53;1.85;;;;;;;;;;5014798;28;20123;-43
2021/05/29 02:56:47;;;;;;;2.40;1.20;;;;;;;;;;5016419;28;20030;-42
2021/05/29 02:59:13;;;;;;;1.45;0.95;;;;;;;;;;5013495;28;20116;-41
2021/05/29 03:01:38;;;;;;;1.50;1.33;;;;;;;;;;5012275;28;20049;-42
2021/05/29 03:04:04;;;;;;;2.63;1.10;;;;;;;;;;5010760;28;20096;-43
2021/05/29 03:06:29;;;;;;;2.78;1.45;;;;;;;;;;5012665;28;20037;-42
2021/05/29 03:08:56;;;;;;;2.05;1.05;;;;;;;;;;5013471;28;20087;-42
2021/05/29 03:11:22;;;;;;;2.30;1.13;;;;;;;;;;5019301;28;20044;-41
2021/05/29 03:13:47;;;;;;;2.45;1.63;;;;;;;;;;5013294;28;20030;-41
2021/05/29 03:16:13;;;;;;;2.58;1.50;;;;;;;;;;5014250;28;20038;-42
2021/05/29 03:18:38;;;;;;;2.10;1.05;;;;;;;;;;5014997;28;20038;-42
2021/05/29 03:21:03;;;;;;;3.08;1.30;;;;;;;;;;5013936;28;20036;-42
2021/05/29 03:23:28;;;;;;;2.53;1.70;;;;;;;;;;5015122;28;20061;-44
2021/05/29 03:25:54;;;;;;;1.30;1.10;;;;;;;;;;5015488;28;20046;-43
2021/05/29 03:28:19;;;;;;;2.78;1.35;;;;;;;;;;5016063;28;20495;-42
2021/05/29 03:30:45;;;;;;;1.98;1.40;;;;;;;;;;5015165;28;20045;-41
2021/05/29 03:33:12;;;;;;;8.52;2.22;;;;;;;;;;5013733;28;20033;-43
2021/05/29 03:35:38;;;;;;;2.25;1.20;;;;;;;;;;5009648;28;20033;-43
2021/05/29 03:38:03;;;;;;;4.15;3.03;;;;;;;;;;5011114;28;20033;-45
2021/05/29 03:40:29;;;;;;;4.15;1.58;;;;;;;;;;5015796;28;20108;-42
2021/05/29 03:42:54;;;;;;;1.77;1.05;;;;;;;;;;5013488;28;20506;-43
2021/05/29 03:45:21;;;;;;;4.05;1.40;;;;;;;;;;5015144;28;20034;-44
2021/05/29 03:47:47;;;;;;;2.03;1.27;;;;;;;;;;5013814;28;20069;-43
2021/05/29 03:50:13;;;;;;;2.45;1.33;;;;;;;;;;5016963;28;20491;-42
2021/05/29 03:52:41;;;;;;;3.78;1.30;;;;;;;;;;5012608;28;20033;-45
2021/05/29 03:55:06;;;;;;;2.60;1.48;;;;;;;;;;5018063;28;20034;-45
2021/05/29 03:57:32;;;;;;;3.72;1.67;;;;;;;;;;5018630;28;20099;-43
2021/05/29 03:59:57;;;;;;;3.67;1.67;;;;;;;;;;5017163;28;20038;-42
2021/05/29 04:02:23;;;;;;;5.35;1.55;;;;;;;;;;5017038;28;20125;-44
2021/05/29 04:04:48;;;;;;;3.13;1.75;;;;;;;;;;5019813;28;20037;-45
2021/05/29 04:07:13;;;;;;;1.42;1.00;;;;;;;;;;5013384;28;20053;-45
2021/05/29 04:09:39;;;;;;;2.95;1.85;;;;;;;;;;5018979;28;20038;-44
2021/05/29 04:12:04;;;;;;;3.83;1.38;;;;;;;;;;5017501;28;20040;-42
2021/05/29 04:14:30;;;;;;;1.55;1.08;;;;;;;;;;5021992;28;20056;-44
2021/05/29 04:16:55;;;;;;;2.20;1.30;;;;;;;;;;5022015;28;20057;-43
2021/05/29 04:19:20;;;;;;;3.60;1.35;;;;;;;;;;5018685;28;20033;-45
2021/05/29 04:21:45;;;;;;;2.03;1.50;;;;;;;;;;5019696;28;20034;-44
2021/05/29 04:24:11;;;;;;;3.40;1.42;;;;;;;;;;5018131;28;20488;-41
2021/05/29 04:26:36;;;;;;;5.20;2.58;;;;;;;;;;5018906;28;20058;-44
2021/05/29 04:29:02;;;;;;;2.42;0.95;;;;;;;;;;5019440;28;20487;-42
2021/05/29 04:31:27;;;;;;;4.85;1.75;;;;;;;;;;5019718;28;20517;-42
2021/05/29 04:33:52;;;;;;;3.30;1.80;;;;;;;;;;5018185;28;20033;-41
2021/05/29 04:36:18;;;;;;;4.93;1.67;;;;;;;;;;5020207;28;20036;-42
2021/05/29 04:38:43;;;;;;;5.68;2.22;;;;;;;;;;5020698;28;20038;-44
2021/05/29 04:41:08;;;;;;;6.43;1.90;;;;;;;;;;5020514;28;20032;-43
2021/05/29 04:43:34;;;;;;;4.95;1.67;;;;;;;;;;5017238;28;20029;-42
2021/05/29 04:45:59;;;;;;;2.35;1.38;;;;;;;;;;5022118;28;20033;-41
2021/05/29 04:48:25;;;;;;;4.18;1.48;;;;;;;;;;5018536;28;20042;-43
2021/05/29 04:53:35;;;;;;;2.00;1.77;;;;;;;;;;5020332;28;20102;-44
2021/05/29 04:56:01;;;;;;;5.47;1.80;;;;;;;;;;5021882;28;20037;-42
2021/05/29 04:58:26;;;;;;;3.17;1.20;;;;;;;;;;5020357;28;20110;-42
2021/05/29 05:00:52;;;;;;;3.65;2.28;;;;;;;;;;5018131;28;20056;-42
2021/05/29 05:03:17;;;;;;;1.75;1.35;;;;;;;;;;5020121;28;20026;-43
2021/05/29 05:05:42;;;;;;;2.55;1.75;;;;;;;;;;5019197;28;20116;-41
2021/05/29 05:08:08;;;;;;;7.05;1.45;;;;;;;;;;5023738;28;20478;-43
2021/05/29 05:10:33;;;;;;;3.03;1.50;;;;;;;;;;5019360;28;20052;-41
2021/05/29 05:12:59;;;;;;;3.63;1.65;;;;;;;;;;5019874;28;20030;-46
2021/05/29 05:15:24;;;;;;;3.97;1.95;;;;;;;;;;5018467;28;20034;-42
2021/05/29 05:17:49;;;;;;;6.63;1.70;;;;;;;;;;5021149;28;20030;-43
2021/05/29 05:20:17;;;;;;;2.95;2.00;;;;;;;;;;5022115;28;20040;-43
2021/05/29 05:22:42;;;;;;;5.00;2.80;;;;;;;;;;5024197;28;20029;-42
2021/05/29 05:25:08;;;;;;;5.10;2.97;;;;;;;;;;5019658;28;20504;-42
2021/05/29 05:27:33;;;;;;;9.15;3.25;;;;;;;;;;5020481;28;20088;-42
2021/05/29 05:29:59;;;;;;;5.93;2.42;;;;;;;;;;5017237;28;20406;-43
2021/05/29 05:32:24;;;;;;;2.92;1.63;;;;;;;;;;5020248;28;20119;-41
2021/05/29 05:34:50;;;;;;;3.53;1.63;;;;;;;;;;5018934;28;20574;-41
2021/05/29 05:37:15;;;;;;;3.45;2.03;;;;;;;;;;5016894;28;20498;-41
2021/05/29 05:39:41;;;;;;;3.25;1.80;;;;;;;;;;5017781;28;20483;-42
2021/05/29 05:42:07;;;;;;;3.53;2.60;;;;;;;;;;5018031;28;20372;-42
2021/05/29 05:44:32;;;;;;;4.45;2.47;;;;;;;;;;5018914;28;20033;-42
2021/05/29 05:46:57;;;;;;;2.65;1.55;;;;;;;;;;5019527;28;20086;-42
2021/05/29 05:49:23;;;;;;;3.97;2.25;;;;;;;;;;5019748;28;20096;-43
2021/05/29 05:51:48;;;;;;;5.03;3.15;;;;;;;;;;5021157;28;20041;-43
2021/05/29 05:54:13;;;;;;;5.28;2.15;;;;;;;;;;5025847;28;20594;-42
2021/05/29 05:56:39;;;;;;;4.03;2.28;;;;;;;;;;5012259;28;20391;-43
2021/05/29 05:59:04;;;;;;;3.38;1.80;;;;;;;;;;5015513;28;20113;-41
2021/05/29 06:01:30;;;;;;;2.70;2.08;;;;;;;;;;5017258;28;20084;-41
2021/05/29 06:03:56;;;;;;;3.90;2.13;;;;;;;;;;5014947;28;20052;-42
2021/05/29 06:06:23;;;;;;;4.22;2.45;;;;;;;;;;5019036;28;20076;-43
2021/05/29 06:08:48;;;;;;;3.90;1.70;;;;;;;;;;5019807;28;20041;-42
2021/05/29 06:11:14;;;;;;;14.57;5.80;;;;;;;;;;5020215;28;20025;-43
2021/05/29 06:19:10;;;;;;;8.40;2.90;;;;;;;;;;5021460;28;20037;-43
2021/05/29 06:21:36;;;;;;;3.05;2.30;;;;;;;;;;5018448;28;20491;-43
2021/05/29 06:24:02;;;;;;;2.63;2.28;;;;;;;;;;5017186;28;20038;-42
2021/05/29 06:26:27;;;;;;;2.83;2.03;;;;;;;;;;5021413;28;20557;-43
2021/05/29 06:28:52;;;;;;;11.20;2.65;;;;;;;;;;5017243;28;20048;-42
2021/05/29 06:31:18;;;;;;;4.43;2.17;;;;;;;;;;5018478;28;20479;-43
2021/05/29 06:33:44;;;;;;;3.80;3.05;;;;;;;;;;5015548;28;20048;-42
2021/05/29 06:36:09;;;;;;;3.00;2.10;;;;;;;;;;5020539;28;20375;-42
2021/05/29 06:38:34;;;;;;;3.63;1.98;;;;;;;;;;5017427;28;20445;-43
2021/05/29 06:41:00;;;;;;;8.38;2.45;;;;;;;;;;5018780;28;20037;-41
2021/05/29 06:43:25;;;;;;;2.92;2.17;;;;;;;;;;5019288;28;20669;-41
2021/05/29 06:45:51;;;;;;;6.75;2.75;;;;;;;;;;5019888;28;20068;-42
2021/05/29 06:48:18;;;;;;;3.17;2.22;;;;;;;;;;5017424;28;20025;-43
2021/05/29 06:50:49;;;;;;;4.20;2.67;;;;;;;;;;5018202;28;20033;-43
2021/05/29 06:53:18;;;;;;;3.90;2.90;;;;;;;;;;5016770;28;20432;-43
2021/05/29 06:58:43;;;;;;;9.30;2.83;;;;;;;;;;5019342;28;20447;-42
2021/05/29 07:01:08;;;;;;;6.05;3.33;;;;;;;;;;5019037;28;20042;-44
2021/05/29 07:03:33;;;;;;;6.47;4.18;;;;;;;;;;5018788;28;20029;-41
2021/05/29 07:05:59;;;;;;;55.03;42.92;;;;;;;;;;5020497;28;20562;-42
2021/05/29 07:08:24;;;;;;;134.75;119.97;;;;;;;;;;5017634;28;20050;-44
2021/05/29 07:10:49;;;;;;;168.27;149.48;;;;;;;;;;5016167;28;20037;-44
2021/05/29 07:13:15;;;;;;;195.90;175.85;;;;;;;;;;5019115;28;20064;-42
2021/05/29 07:15:40;;;;;;;218.70;195.50;;;;;;;;;;5019976;28;20490;-43
2021/05/29 07:18:15;;;;;;;265.92;234.48;;;;;;;;;;5014669;28;20069;-42
2021/05/29 07:20:41;;;;;;;275.48;236.90;;;;;;;;;;5019306;28;20030;-44
2021/05/29 07:23:06;;;;;;;250.02;209.63;;;;;;;;;;5018890;28;20513;-43
2021/05/29 07:25:32;;;;;;;200.00;161.43;;;;;;;;;;5015439;28;20144;-40
2021/05/29 07:27:57;;;;;;;154.05;127.78;;;;;;;;;;5020802;28;20038;-41
2021/05/29 07:30:23;;;;;;;111.20;99.10;;;;;;;;;;5023368;28;20401;-40
2021/05/29 07:32:48;;;;;;;78.72;56.38;;;;;;;;;;5023142;28;20037;-39
2021/05/29 07:35:14;;;;;;;63.83;56.05;;;;;;;;;;5023822;28;20052;-39
2021/05/29 07:37:39;;;;;;;69.50;46.45;;;;;;;;;;5023280;28;20395;-39
2021/05/29 07:40:05;;;;;;;44.65;32.97;;;;;;;;;;5023468;28;20414;-40
2021/05/29 07:42:30;;;;;;;40.38;30.90;;;;;;;;;;5016358;28;20033;-42
2021/05/29 07:44:56;;;;;;;34.70;27.55;;;;;;;;;;5019605;28;20487;-44
2021/05/29 07:47:21;;;;;;;16.00;9.98;;;;;;;;;;5024728;28;20153;-41
2021/05/29 07:49:46;;;;;;;21.80;11.65;;;;;;;;;;5019921;28;20088;-42
2021/05/29 07:52:12;;;;;;;27.15;7.95;;;;;;;;;;5021492;28;20150;-44
2021/05/29 07:54:37;;;;;;;9.88;5.95;;;;;;;;;;5017404;28;20556;-43
2021/05/29 07:57:03;;;;;;;14.85;8.95;;;;;;;;;;5019434;28;20029;-41
2021/05/29 07:59:28;;;;;;;12.38;9.80;;;;;;;;;;5021591;28;20040;-40
2021/05/29 08:01:53;;;;;;;9.90;5.40;;;;;;;;;;5017334;28;20466;-39
2021/05/29 08:04:19;;;;;;;9.35;7.28;;;;;;;;;;5022405;28;20037;-42
2021/05/29 08:06:44;;;;;;;13.27;11.57;;;;;;;;;;5015884;28;20150;-40
2021/05/29 08:09:10;;;;;;;21.25;10.70;;;;;;;;;;5015002;28;20490;-40
2021/05/29 08:11:39;;;;;;;19.60;12.70;;;;;;;;;;5016816;28;20125;-41
2021/05/29 08:14:10;;;;;;;19.20;11.27;;;;;;;;;;5015849;28;20033;-41
2021/05/29 08:16:35;;;;;;;;;;;;;;;;;;5020033;28;20037;-39
2021/05/29 08:19:00;;;;;;;25.77;9.30;;;;;;;;;;5017744;28;20006;-40
2021/05/29 08:21:26;;;;;;;17.83;11.85;;;;;;;;;;5015823;28;20076;-40
2021/05/29 08:23:52;;;;;;;26.25;12.05;;;;;;;;;;5020303;28;20038;-39
2021/05/29 08:26:18;;;;;;;14.77;11.05;;;;;;;;;;5015404;28;20029;-40
2021/05/29 08:28:44;;;;;;;5.93;4.53;;;;;;;;;;5015878;28;20081;-39
2021/05/29 08:31:10;;;;;;;5.07;2.92;;;;;;;;;;5014870;28;20499;-42
2021/05/29 08:33:35;;;;;;;4.88;3.38;;;;;;;;;;5017449;28;20045;-39
2021/05/29 08:36:00;;;;;;;4.90;2.53;;;;;;;;;;5016963;28;20529;-42
2021/05/29 08:38:26;;;;;;;6.00;3.45;;;;;;;;;;5018441;28;20115;-41
2021/05/29 08:40:52;;;;;;;4.75;1.50;;;;;;;;;;5016653;28;20112;-41
2021/05/29 08:43:17;;;;;;;3.60;2.25;;;;;;;;;;5013597;28;20121;-38
2021/05/29 08:45:44;;;;;;;5.72;1.98;;;;;;;;;;5019686;28;20122;-38
2021/05/29 08:48:10;;;;;;;3.28;1.58;;;;;;;;;;5018226;28;20037;-38
2021/05/29 08:50:36;;;;;;;5.28;1.58;;;;;;;;;;5017437;28;20399;-38
2021/05/29 08:53:01;;;;;;;4.72;1.65;;;;;;;;;;5019089;28;20072;-38
2021/05/29 08:55:26;;;;;;;8.30;7.35;;;;;;;;;;5015887;28;20392;-38
2021/05/29 08:57:52;;;;;;;4.53;2.05;;;;;;;;;;5015332;28;20026;-39
2021/05/29 09:00:19;;;;;;;6.97;3.38;;;;;;;;;;5014847;28;20042;-37
2021/05/29 09:03:02;;;;;;;4.50;1.92;;;;;;;;;;5016194;28;20510;-40
2021/05/29 09:05:33;;;;;;;3.15;2.13;;;;;;;;;;5020306;28;20049;-39
2021/05/29 09:08:05;;;;;;;4.00;2.33;;;;;;;;;;5016448;28;20116;-38
2021/05/29 09:10:33;;;;;;;3.38;2.38;;;;;;;;;;5016904;28;20037;-38
2021/05/29 09:13:03;;;;;;;13.27;3.30;;;;;;;;;;5015334;28;20038;-38
2021/05/29 09:15:47;;;;;;;8.13;3.20;;;;;;;;;;5012753;28;20827;-39
2021/05/29 09:18:31;;;;;;;3.03;2.72;;;;;;;;;;5014782;28;20030;-40
2021/05/29 09:21:15;;;;;;;5.95;2.45;;;;;;;;;;5019765;28;20129;-37
2021/05/29 09:23:48;;;;;;;8.88;2.50;;;;;;;;;;5017554;28;20054;-37
2021/05/29 09:26:13;;;;;;;5.32;2.28;;;;;;;;;;5016033;28;20092;-37
2021/05/29 09:28:40;;;;;;;4.25;2.42;;;;;;;;;;5015338;28;20034;-37
2021/05/29 09:31:06;;;;;;;14.43;2.83;;;;;;;;;;5018284;28;20380;-37
2021/05/29 09:33:35;;;;;;;3.28;2.20;;;;;;;;;;5015714;28;20036;-36
2021/05/29 09:36:00;;;;;;;4.93;2.88;;;;;;;;;;5017685;28;20044;-37
2021/05/29 09:38:39;;;;;;;2.60;0.95;;;;;;;;;;5015658;28;20394;-37
2021/05/29 09:41:07;;;;;;;2.35;1.52;;;;;;;;;;5013418;28;20038;-37
2021/05/29 09:44:12;;;;;;;4.53;2.83;;;;;;;;;;5014606;28;20033;-37
2021/05/29 09:46:50;;;;;;;10.13;2.75;;;;;;;;;;4972843;28;20504;-37
2021/05/29 09:49:15;;;;;;;4.85;2.03;;;;;;;;;;4978333;28;20034;-37
2021/05/29 09:51:40;;;;;;;1.90;1.05;;;;;;;;;;4998026;28;20107;-37
2021/05/29 09:54:07;;;;;;;22.55;14.63;;;;;;;;;;5014506;28;20540;-38
2021/05/29 09:56:34;;;;;;;43.45;24.77;;;;;;;;;;5014718;28;20037;-37
2021/05/29 09:59:05;;;;;;;10.30;5.32;;;;;;;;;;5017307;28;20034;-37
2021/05/29 10:01:37;;;;;;;10.57;4.53;;;;;;;;;;5017517;28;20041;-37
2021/05/29 10:04:03;;;;;;;4.78;2.72;;;;;;;;;;5016197;28;20044;-38
2021/05/29 10:06:28;;;;;;;4.75;3.28;;;;;;;;;;5014143;28;20034;-37
2021/05/29 10:08:54;;;;;;;15.35;3.28;;;;;;;;;;5001086;28;20086;-37
2021/05/29 10:11:19;;;;;;;5.82;3.60;;;;;;;;;;5016012;28;20029;-37
2021/05/29 10:13:44;;;;;;;5.97;4.45;;;;;;;;;;5011323;28;20033;-37
2021/05/29 10:16:10;;;;;;;10.73;4.20;;;;;;;;;;5014838;28;20061;-37
2021/05/29 10:18:35;;;;;;;8.98;2.42;;;;;;;;;;5016144;28;20483;-38
2021/05/29 10:21:01;;;;;;;9.80;4.63;;;;;;;;;;5013469;28;20030;-37
2021/05/29 10:23:26;;;;;;;7.53;5.18;;;;;;;;;;5015770;28;20030;-37
2021/05/29 10:25:52;;;;;;;8.90;3.47;;;;;;;;;;5016347;28;20045;-38
2021/05/29 10:28:18;;;;;;;9.35;2.88;;;;;;;;;;5015243;28;20451;-37
2021/05/29 10:30:44;;;;;;;3.85;2.47;;;;;;;;;;5016321;28;20038;-38
2021/05/29 10:33:11;;;;;;;2.75;2.00;;;;;;;;;;5016867;28;20037;-37
2021/05/29 10:35:38;;;;;;;3.42;1.90;;;;;;;;;;5014433;28;20033;-37
2021/05/29 10:38:03;;;;;;;2.63;1.35;;;;;;;;;;5016868;28;20092;-37
2021/05/29 10:40:37;;;;;;;5.07;1.27;;;;;;;;;;5016722;28;20038;-38
2021/05/29 10:43:09;;;;;;;4.93;1.90;;;;;;;;;;5014767;28;20754;-37
2021/05/29 10:45:36;;;;;;;3.67;2.10;;;;;;;;;;5015034;28;20034;-37
2021/05/29 10:48:10;;;;;;;5.47;2.15;;;;;;;;;;5015590;28;20037;-37
2021/05/29 10:53:42;;;;;;;2.72;1.88;;;;;;;;;;5017182;28;20120;-37
2021/05/29 10:56:16;;;;;;;2.83;2.40;;;;;;;;;;5015355;28;20822;-38
2021/05/29 10:59:00;;;;;;;3.20;1.30;;;;;;;;;;5012637;28;20038;-38
2021/05/29 11:01:48;;;;;;;5.70;1.45;;;;;;;;;;5013864;28;20072;-37
2021/05/29 11:04:21;;;;;;;4.35;1.92;;;;;;;;;;5015565;28;20494;-37
2021/05/29 11:06:52;;;;;;;2.10;1.50;;;;;;;;;;5017731;28;20042;-38
2021/05/29 11:09:37;;;;;;;2.55;1.50;;;;;;;;;;5017816;28;20036;-38
2021/05/29 11:12:03;;;;;;;1.98;1.50;;;;;;;;;;5014920;28;20034;-37
2021/05/29 11:14:48;;;;;;;2.85;1.45;;;;;;;;;;5019778;28;20033;-37
2021/05/29 11:17:14;;;;;;;1.80;1.27;;;;;;;;;;5020370;28;20026;-38
2021/05/29 11:19:40;;;;;;;4.03;1.55;;;;;;;;;;5022485;28;20036;-38
2021/05/29 11:22:07;;;;;;;7.00;2.88;;;;;;;;;;5021374;28;20391;-38
2021/05/29 11:24:40;;;;;;;7.38;2.22;;;;;;;;;;5019491;28;20128;-39
2021/05/29 11:27:13;;;;;;;2.10;1.20;;;;;;;;;;5019063;28;20052;-37
2021/05/29 11:29:47;;;;;;;5.78;1.70;;;;;;;;;;5017723;28;20112;-37
2021/05/29 11:32:13;;;;;;;2.25;1.02;;;;;;;;;;5015161;28;20104;-37
2021/05/29 11:34:42;;;;;;;3.00;0.88;;;;;;;;;;5017850;28;20352;-38
2021/05/29 11:37:14;;;;;;;7.28;1.40;;;;;;;;;;5014355;28;20099;-37
2021/05/29 11:39:59;;;;;;;4.25;2.08;;;;;;;;;;5016348;28;20597;-37
2021/05/29 11:42:24;;;;;;;6.00;1.92;;;;;;;;;;5018249;28;20034;-37
2021/05/29 11:44:50;;;;;;;5.28;2.15;;;;;;;;;;5018493;28;20499;-38
2021/05/29 11:47:16;;;;;;;2.03;1.00;;;;;;;;;;5015496;28;20121;-37
2021/05/29 11:49:41;;;;;;;2.92;1.02;;;;;;;;;;5017860;28;20113;-37
2021/05/29 11:52:07;;;;;;;8.93;1.33;;;;;;;;;;5016016;28;20180;-37
2021/05/29 11:54:33;;;;;;;3.95;1.55;;;;;;;;;;5017070;28;20402;-38
2021/05/29 11:56:58;;;;;;;1.65;0.82;;;;;;;;;;5022660;28;20449;-38
2021/05/29 11:59:23;;;;;;;6.82;2.08;;;;;;;;;;5014747;28;20038;-38
2021/05/29 12:01:52;;;;;;;3.13;1.00;;;;;;;;;;5015316;28;20041;-38
2021/05/29 12:04:25;;;;;;;1.63;0.95;;;;;;;;;;5018300;28;20106;-40
2021/05/29 12:06:52;;;;;;;2.00;0.90;;;;;;;;;;5014579;28;20041;-38
2021/05/29 12:09:17;;;;;;;3.03;1.17;;;;;;;;;;5018119;28;20397;-37
2021/05/29 12:11:45;;;;;;;1.45;1.00;;;;;;;;;;5020834;28;20662;-37
2021/05/29 12:14:12;;;;;;;6.93;1.25;;;;;;;;;;5018574;28;20044;-37
2021/05/29 12:16:39;;;;;;;2.80;1.02;;;;;;;;;;5018131;28;20042;-37
2021/05/29 12:19:05;;;;;;;4.13;1.48;;;;;;;;;;5014735;28;20030;-37
2021/05/29 12:21:44;;;;;;;4.13;1.88;;;;;;;;;;5017489;28;20041;-40
2021/05/29 12:24:10;;;;;;;5.55;1.77;;;;;;;;;;5016064;28;20026;-38
2021/05/29 12:26:35;;;;;;;2.63;1.52;;;;;;;;;;5018641;28;20121;-37
2021/05/29 12:29:01;;;;;;;1.23;0.60;;;;;;;;;;5019326;28;20560;-38
2021/05/29 12:31:42;;;;;;;5.57;1.48;;;;;;;;;;5018477;28;20025;-38
2021/05/29 12:34:07;;;;;;;8.32;1.40;;;;;;;;;;5014252;28;20104;-38
2021/05/29 12:36:33;;;;;;;3.50;1.45;;;;;;;;;;5016467;28;20034;-38
2021/05/29 12:39:00;;;;;;;3.35;1.27;;;;;;;;;;5005034;28;20030;-40
2021/05/29 12:41:34;;;;;;;2.17;1.27;;;;;;;;;;5017130;28;20026;-38
2021/05/29 12:44:07;;;;;;;3.20;0.95;;;;;;;;;;5013322;28;20034;-37
2021/05/29 12:46:33;;;;;;;5.20;2.10;;;;;;;;;;5016119;28;20087;-38
2021/05/29 12:49:01;;;;;;;5.20;2.08;;;;;;;;;;5019495;28;20033;-37
2021/05/29 12:51:36;;;;;;;0.77;0.50;;;;;;;;;;5017001;28;20069;-38
2021/05/29 12:54:01;;;;;;;5.97;1.58;;;;;;;;;;5016461;28;20092;-38
2021/05/29 12:56:26;;;;;;;1.38;0.82;;;;;;;;;;5015546;28;20490;-37
2021/05/29 12:59:04;;;;;;;5.32;1.20;;;;;;;;;;5019404;28;20061;-38
2021/05/29 13:09:40;;;;;;;2.28;1.15;;;;;;;;;;5018840;28;20115;-38
2021/05/29 13:12:12;;;;;;;1.55;0.82;;;;;;;;;;5017410;28;20034;-37
2021/05/29 13:14:38;;;;;;;1.20;0.70;;;;;;;;;;5012933;28;20080;-37
2021/05/29 13:17:04;;;;;;;1.10;0.50;;;;;;;;;;5016796;28;20029;-38
2021/05/29 13:19:41;;;;;;;2.58;1.00;;;;;;;;;;5015233;28;20034;-39
2021/05/29 13:22:07;;;;;;;1.92;0.75;;;;;;;;;;5017271;28;20032;-39
2021/05/29 13:24:39;;;;;;;1.33;0.68;;;;;;;;;;5013845;28;20129;-36
2021/05/29 13:27:05;;;;;;;7.03;1.80;;;;;;;;;;5013959;28;20029;-42
2021/05/29 13:29:30;;;;;;;3.10;1.88;;;;;;;;;;5015021;28;20041;-38
2021/05/29 13:31:56;;;;;;;1.00;0.70;;;;;;;;;;5020281;28;20034;-36
2021/05/29 13:34:21;;;;;;;3.63;1.02;;;;;;;;;;5017401;28;20045;-37
2021/05/29 13:36:46;;;;;;;2.55;0.98;;;;;;;;;;5017519;28;20022;-38
2021/05/29 13:39:14;;;;;;;2.90;1.27;;;;;;;;;;5016866;28;20060;-36
2021/05/29 13:41:40;;;;;;;0.80;0.50;;;;;;;;;;5015697;28;20176;-38
2021/05/29 13:44:05;;;;;;;1.42;0.70;;;;;;;;;;5015787;28;20472;-36
2021/05/29 13:46:31;;;;;;;4.80;0.90;;;;;;;;;;5014775;28;20041;-40
2021/05/29 13:48:56;;;;;;;3.25;1.23;;;;;;;;;;5019698;28;20025;-39
2021/05/29 13:51:21;;;;;;;1.60;0.82;;;;;;;;;;5018553;28;20072;-37
2021/05/29 13:53:48;;;;;;;3.50;1.08;;;;;;;;;;5018456;28;20034;-38
2021/05/29 13:56:14;;;;;;;1.42;0.82;;;;;;;;;;5018395;28;20044;-37
2021/05/29 13:58:39;;;;;;;1.38;0.90;;;;;;;;;;5014505;28;20029;-37
2021/05/29 14:01:04;;;;;;;3.22;1.50;;;;;;;;;;5016852;28;20081;-39
2021/05/29 14:03:29;;;;;;;5.50;1.08;;;;;;;;;;5013876;28;20114;-38
2021/05/29 14:05:55;;;;;;;1.13;0.73;;;;;;;;;;5017068;28;20034;-37
2021/05/29 14:08:21;;;;;;;3.00;1.00;;;;;;;;;;5015731;28;20025;-37
2021/05/29 14:10:46;;;;;;;0.93;0.47;;;;;;;;;;5015156;28;20040;-40
2021/05/29 14:13:11;;;;;;;1.83;0.75;;;;;;;;;;5018807;28;20037;-40
2021/05/29 14:15:37;;;;;;;17.10;1.20;;;;;;;;;;5013767;28;20767;-39
2021/05/29 14:18:02;;;;;;;4.95;0.82;;;;;;;;;;5014790;28;20053;-38
2021/05/29 14:20:28;;;;;;;1.88;0.98;;;;;;;;;;5012754;28;20038;-38
2021/05/29 14:22:53;;;;;;;5.47;1.00;;;;;;;;;;5014668;28;20065;-38
2021/05/29 14:25:18;;;;;;;6.70;1.52;;;;;;;;;;5016771;28;20034;-37
2021/05/29 14:27:44;;;;;;;1.00;0.68;;;;;;;;;;5014098;28;20096;-39
2021/05/29 14:30:09;;;;;;;1.55;0.57;;;;;;;;;;5016379;28;20030;-38
2021/05/29 14:32:34;;;;;;;1.77;0.68;;;;;;;;;;5016985;28;20513;-38
2021/05/29 14:35:00;;;;;;;2.42;1.02;;;;;;;;;;5021300;28;20033;-38
2021/05/29 14:37:25;;;;;;;2.45;0.93;;;;;;;;;;5019171;28;20057;-37
2021/05/29 14:39:50;;;;;;;11.60;1.60;;;;;;;;;;5012924;28;20107;-37
2021/05/29 14:42:16;;;;;;;1.98;1.10;;;;;;;;;;4999860;28;20052;-38
2021/05/29 14:44:41;;;;;;;4.90;1.73;;;;;;;;;;5015977;28;20038;-38
2021/05/29 14:47:06;;;;;;;1.80;0.45;;;;;;;;;;5015542;28;20033;-38
2021/05/29 14:49:32;;;;;;;4.15;2.00;;;;;;;;;;5013657;28;20464;-38
2021/05/29 14:51:57;;;;;;;1.98;0.93;;;;;;;;;;5013302;28;20552;-39
2021/05/29 14:54:25;;;;;;;1.65;0.98;;;;;;;;;;5013999;28;20722;-39
2021/05/29 14:56:50;;;;;;;6.82;1.48;;;;;;;;;;5015012;28;20045;-38
2021/05/29 14:59:15;;;;;;;3.83;0.93;;;;;;;;;;5015129;28;20518;-38
2021/05/29 15:01:42;;;;;;;5.45;1.38;;;;;;;;;;5014619;28;20062;-38
2021/05/29 15:04:09;;;;;;;2.88;1.60;;;;;;;;;;5014110;28;20053;-40